Terminal Aerodrome Forecast
Issued by NWS Cleveland, OH

Home | Current Version | Previous Version | Graphics & Text | Print | Product List | Glossary On
Versions: 1 2 3 4 5 6 7 8 9 10 11 12 13 14 15 16 17 18 19 20 21
000
FTUS41 KCLE 151300 AAA
TAFMFD
TAF AMD
KMFD 151358Z 1514/1612 17005KT 1/4SM FG VV002
      TEMPO 1514/1516 1SM BR BKN004
     FM151600 16007KT 4SM BR SCT007 BKN250
     FM151900 13006KT P6SM BKN025
     FM160500 12007KT 5SM -RA BR BKN030
     FM161000 16011KT 3SM -RA BR OVC012=

USA.gov is the U.S. government's official web portal to all federal, state and local government web resources and services.